Aviation Digital Data Service (ADDS)

Output produced by METARs form (0556 UTC 19 March 2019)
found at http://www.aviationweather.gov/metar/data/
 
Forecast for: CYUL (MONTREAL/DORVAL , QC, CA)
Text: TAF CYUL 190538Z 1906/2006 VRB03KT P6SM SCT190
Forecast period: 0600 to 1600 UTC 19 March 2019
Forecast type: FROM: standard forecast or significant change
Winds: variable direction winds at 3 MPH (3 knots; 1.5 m/s)
Visibility: 6 or more miles 10+ km)
Ceiling: at least 12,000 feet AGL
Clouds: scattered clouds at 19000 feet AGL
Weather: no significant weather forecast for this period
Text: FM191600 22007KT P6SM FEW030
Forecast period: 1600 to 2200 UTC 19 March 2019
Forecast type: FROM: standard forecast or significant change
Winds: from the SW (220 degrees) at 8 MPH (7 knots; 3.6 m/s)
Visibility: 6 or more miles 10+ km)
Ceiling: at least 12,000 feet AGL
Clouds: few clouds at 3000 feet AGL
Weather: no significant weather forecast for this period
Text: BECMG 1922/1924 VRB03KT RMK NXT FCST BY 190900Z
Forecast period: 2200 UTC 19 March 2019 to 0600 UTC 20 March 2019
Forecast type: BECOMING: Conditions expected to become as follows by 0000 UTC 20 March 2019
Winds: variable direction winds at 3 MPH (3 knots; 1.5 m/s)
Visibility: 6 or more miles 10+ km)
Ceiling: at least 12,000 feet AGL
Clouds: few clouds at 3000 feet AGL
Weather: no significant weather forecast for this period